Time;durP1;ratioP1;P1;durP2;ratioP2;P2;SDS_P1;SDS_P2;PMS_P1;PMS_P2;Temp;Humidity;BMP_temperature;BMP_pressure;BME280_temperature;BME280_humidity;BME280_pressure;Samples;Min_cycle;Max_cycle;Signal;HPM_P1;HPM_P2
2023/11/20 00:02:24;;;;;;;3.30;2.60;;;19.30;61.70;;;;;;5082814;28;20028;-35
2023/11/20 00:04:50;;;;;;;2.90;2.70;;;19.30;61.80;;;;;;5081537;28;20039;-35
2023/11/20 00:07:16;;;;;;;2.60;2.30;;;19.30;61.70;;;;;;5082458;28;20561;-35
2023/11/20 00:09:42;;;;;;;3.05;2.75;;;19.30;61.80;;;;;;5081617;28;20118;-35
2023/11/20 00:12:08;;;;;;;3.33;2.80;;;19.30;62.50;;;;;;5081021;28;20021;-35
2023/11/20 00:14:35;;;;;;;3.10;2.60;;;19.30;61.80;;;;;;5075284;28;20040;-35
2023/11/20 00:17:02;;;;;;;3.08;2.58;;;19.30;61.70;;;;;;5075640;28;20040;-35
2023/11/20 00:19:28;;;;;;;3.17;2.60;;;19.30;61.80;;;;;;5076007;28;20033;-35
2023/11/20 00:21:54;;;;;;;3.22;2.72;;;19.30;61.80;;;;;;5074414;28;20041;-34
2023/11/20 00:24:20;;;;;;;3.13;2.60;;;19.20;61.80;;;;;;5075490;28;20032;-34
2023/11/20 00:26:46;;;;;;;3.25;2.95;;;19.20;61.70;;;;;;5075468;28;20059;-35
2023/11/20 00:29:13;;;;;;;3.33;3.03;;;19.20;61.80;;;;;;5075946;28;20104;-35
2023/11/20 00:31:39;;;;;;;3.03;2.70;;;19.20;61.80;;;;;;5074671;28;20033;-35
2023/11/20 00:34:05;;;;;;;3.80;2.90;;;19.20;61.80;;;;;;5074103;28;20041;-35
2023/11/20 00:36:31;;;;;;;2.70;2.50;;;19.20;61.80;;;;;;5076583;28;20389;-35
2023/11/20 00:38:57;;;;;;;3.30;2.70;;;19.10;61.80;;;;;;5075224;28;20078;-35
2023/11/20 00:41:24;;;;;;;2.95;2.70;;;19.20;61.80;;;;;;5075991;28;20043;-35
2023/11/20 00:43:50;;;;;;;2.77;2.57;;;19.10;61.80;;;;;;5080844;28;20094;-35
2023/11/20 00:46:16;;;;;;;3.00;2.70;;;19.10;61.80;;;;;;5087324;28;20096;-35
2023/11/20 00:48:44;;;;;;;3.00;2.60;;;19.10;61.80;;;;;;5081494;28;20084;-35
2023/11/20 00:51:11;;;;;;;3.10;2.58;;;19.10;61.80;;;;;;5083912;28;20036;-35
2023/11/20 00:53:38;;;;;;;3.22;2.88;;;19.00;61.70;;;;;;5081416;28;20060;-35
2023/11/20 00:56:04;;;;;;;2.83;2.63;;;19.10;61.90;;;;;;5081202;28;20041;-35
2023/11/20 00:58:31;;;;;;;3.03;2.60;;;19.00;61.70;;;;;;5082009;28;20024;-35
2023/11/20 01:00:58;;;;;;;3.00;2.70;;;19.00;61.80;;;;;;5081939;28;20036;-35
2023/11/20 01:03:25;;;;;;;2.70;2.50;;;19.00;61.90;;;;;;5082171;28;20037;-35
2023/11/20 01:05:52;;;;;;;2.47;2.28;;;19.00;61.80;;;;;;5081936;28;20048;-35
2023/11/20 01:08:23;;;;;;;3.38;3.05;;;19.00;61.80;;;;;;5075314;28;20036;-35
2023/11/20 01:10:50;;;;;;;3.55;2.50;;;19.00;61.90;;;;;;5080316;28;20119;-35
2023/11/20 01:13:17;;;;;;;2.75;2.55;;;18.90;61.80;;;;;;5072345;28;20086;-35
2023/11/20 01:15:45;;;;;;;2.53;2.33;;;18.90;61.80;;;;;;5074844;28;20048;-35
2023/11/20 01:18:14;;;;;;;2.78;2.38;;;19.00;62.00;;;;;;5073561;28;20105;-35
2023/11/20 01:20:42;;;;;;;2.83;2.60;;;18.90;61.90;;;;;;5074036;28;20028;-35
2023/11/20 01:23:09;;;;;;;2.90;2.60;;;18.90;61.90;;;;;;5074001;28;20033;-36
2023/11/20 01:25:36;;;;;;;;;;;18.90;61.90;;;;;;5075237;28;20021;-35
2023/11/20 01:28:08;;;;;;;3.50;2.97;;;18.90;62.00;;;;;;5074556;28;19919;-35
2023/11/20 01:30:35;;;;;;;2.92;2.65;;;18.90;62.00;;;;;;5074561;28;20048;-35
2023/11/20 01:33:03;;;;;;;3.05;2.63;;;18.90;62.00;;;;;;5075560;28;20103;-35
2023/11/20 01:35:31;;;;;;;2.88;2.47;;;18.80;61.90;;;;;;5073522;28;20043;-35
2023/11/20 01:37:59;;;;;;;2.53;2.33;;;18.80;62.00;;;;;;5074397;28;20062;-36
2023/11/20 01:40:26;;;;;;;;;;;18.80;62.00;;;;;;5075195;28;20091;-35
2023/11/20 01:42:53;;;;;;;2.88;2.30;;;18.80;62.00;;;;;;5078261;28;19987;-35
2023/11/20 01:45:20;;;;;;;2.90;2.65;;;18.80;62.00;;;;;;5087786;28;20032;-34
2023/11/20 01:47:47;;;;;;;2.97;2.65;;;18.80;62.00;;;;;;5077697;28;20251;-34
2023/11/20 01:50:15;;;;;;;3.40;2.97;;;18.80;62.00;;;;;;5079490;28;20051;-35
2023/11/20 01:52:43;;;;;;;3.03;2.72;;;18.70;62.10;;;;;;5084353;28;20021;-35
2023/11/20 01:55:09;;;;;;;;;;;18.80;62.10;;;;;;5085503;28;20034;-35
2023/11/20 01:57:37;;;;;;;3.67;2.88;;;18.70;62.10;;;;;;5085149;28;19968;-35
2023/11/20 02:00:10;;;;;;;2.60;2.40;;;18.70;62.10;;;;;;5083299;28;20059;-34
2023/11/20 02:02:38;;;;;;;2.47;2.28;;;18.70;62.10;;;;;;5084800;28;20868;-35
2023/11/20 02:05:05;;;;;;;3.50;2.67;;;18.70;62.20;;;;;;5081429;28;20090;-35
2023/11/20 02:07:36;;;;;;;3.90;2.67;;;18.70;62.20;;;;;;5073249;28;20119;-35
2023/11/20 02:10:07;;;;;;;3.13;2.72;;;18.70;62.20;;;;;;5069789;28;20190;-35
2023/11/20 02:12:36;;;;;;;2.90;2.63;;;18.70;62.30;;;;;;5084231;28;20826;-35
2023/11/20 02:15:05;;;;;;;2.80;2.60;;;18.60;62.20;;;;;;5071474;28;20448;-35
2023/11/20 02:17:32;;;;;;;2.58;2.38;;;18.60;62.20;;;;;;5072675;28;20025;-35
2023/11/20 02:19:59;;;;;;;3.03;2.60;;;18.60;62.20;;;;;;5074330;28;20049;-34
2023/11/20 02:22:27;;;;;;;3.25;2.88;;;18.60;62.20;;;;;;5080570;28;20029;-35
2023/11/20 02:24:53;;;;;;;;;;;18.60;62.30;;;;;;5085183;28;20488;-35
2023/11/20 02:27:46;;;;;;;2.85;2.60;;;18.60;62.30;;;;;;5079751;28;19958;-35
2023/11/20 02:30:13;;;;;;;3.03;2.75;;;18.50;62.30;;;;;;5069296;28;20072;-35
2023/11/20 02:32:40;;;;;;;2.80;2.60;;;18.50;62.40;;;;;;5083808;28;20048;-35
2023/11/20 02:35:14;;;;;;;2.93;2.63;;;18.50;62.40;;;;;;5077423;28;20052;-35
2023/11/20 02:37:42;;;;;;;3.22;2.78;;;18.50;62.30;;;;;;5076531;28;20041;-35
2023/11/20 02:40:13;;;;;;;2.47;2.28;;;18.50;62.30;;;;;;5079601;28;20032;-35
2023/11/20 02:42:40;;;;;;;;;;;18.50;62.30;;;;;;5081206;28;20118;-35
2023/11/20 02:45:12;;;;;;;2.42;2.22;;;18.50;62.50;;;;;;5085670;28;20464;-35
2023/11/20 02:47:40;;;;;;;2.83;2.63;;;18.40;62.40;;;;;;5075545;28;20033;-35
2023/11/20 02:50:07;;;;;;;2.83;2.60;;;18.40;62.50;;;;;;5073276;28;20041;-36
2023/11/20 02:52:34;;;;;;;2.90;2.60;;;18.40;62.40;;;;;;5080730;28;20037;-35
2023/11/20 02:55:02;;;;;;;3.15;2.85;;;18.40;62.50;;;;;;5076845;28;20120;-36
2023/11/20 02:57:29;;;;;;;2.83;2.60;;;18.40;62.50;;;;;;5083241;28;20374;-35
2023/11/20 02:59:56;;;;;;;3.10;2.80;;;18.40;62.50;;;;;;5083422;28;20020;-36
2023/11/20 03:02:23;;;;;;;3.05;2.45;;;18.40;62.60;;;;;;5083912;28;20067;-36
2023/11/20 03:04:54;;;;;;;2.58;2.35;;;18.40;62.50;;;;;;5083333;28;20031;-36
2023/11/20 03:07:22;;;;;;;2.97;2.60;;;18.30;62.50;;;;;;5078881;28;20033;-35
2023/11/20 03:09:49;;;;;;;2.85;2.55;;;18.30;62.60;;;;;;5080594;28;20113;-35
2023/11/20 03:12:16;;;;;;;2.60;2.40;;;18.30;62.60;;;;;;5077597;28;20032;-35
2023/11/20 03:14:44;;;;;;;3.10;2.80;;;18.30;62.60;;;;;;5086395;28;20032;-36
2023/11/20 03:17:11;;;;;;;2.72;2.53;;;18.30;62.60;;;;;;5075726;28;20537;-35
2023/11/20 03:19:39;;;;;;;2.85;2.55;;;18.30;62.60;;;;;;5083337;28;20032;-35
2023/11/20 03:22:07;;;;;;;3.42;2.78;;;18.30;62.60;;;;;;5083329;28;20035;-35
2023/11/20 03:24:34;;;;;;;2.70;2.42;;;18.30;62.70;;;;;;5083907;28;20330;-35
2023/11/20 03:27:06;;;;;;;3.00;2.58;;;18.20;62.70;;;;;;5080429;28;20104;-36
2023/11/20 03:29:33;;;;;;;2.60;2.40;;;18.20;62.70;;;;;;5072589;28;20029;-35
2023/11/20 03:31:59;;;;;;;3.25;2.95;;;18.20;62.80;;;;;;5083306;28;20500;-35
2023/11/20 03:34:26;;;;;;;2.87;2.40;;;18.20;62.70;;;;;;5083362;28;20058;-35
2023/11/20 03:36:53;;;;;;;3.08;2.78;;;18.20;62.80;;;;;;5074911;28;20131;-35
2023/11/20 03:39:20;;;;;;;3.28;2.50;;;18.20;62.80;;;;;;5077912;28;20021;-35
2023/11/20 03:41:47;;;;;;;3.00;2.50;;;18.20;62.80;;;;;;5078177;28;20088;-36
2023/11/20 03:44:14;;;;;;;2.92;2.63;;;18.20;62.90;;;;;;5076255;28;20055;-35
2023/11/20 03:46:40;;;;;;;3.50;2.60;;;18.10;62.80;;;;;;5075599;28;20040;-35
2023/11/20 03:49:07;;;;;;;3.72;2.80;;;18.10;62.90;;;;;;5070681;28;20047;-35
2023/11/20 03:51:34;;;;;;;2.75;2.55;;;18.10;62.80;;;;;;5080538;28;20044;-35
2023/11/20 03:54:00;;;;;;;2.92;2.47;;;18.10;62.90;;;;;;5083345;28;20024;-35
2023/11/20 03:56:27;;;;;;;2.73;2.50;;;18.10;62.90;;;;;;5083353;28;20096;-35
2023/11/20 03:58:53;;;;;;;2.67;2.40;;;18.10;63.00;;;;;;5082872;28;20304;-35
2023/11/20 04:01:20;;;;;;;3.97;2.40;;;18.10;63.00;;;;;;5082971;28;20033;-36
2023/11/20 04:03:46;;;;;;;3.30;2.50;;;18.00;62.90;;;;;;5082441;28;20041;-35
2023/11/20 04:06:12;;;;;;;2.80;2.50;;;18.00;63.00;;;;;;5083681;28;20025;-35
2023/11/20 04:08:38;;;;;;;3.25;2.50;;;18.00;62.90;;;;;;5082675;28;20031;-36
2023/11/20 04:11:04;;;;;;;2.97;2.13;;;18.00;63.00;;;;;;5083073;28;20036;-36
2023/11/20 04:13:30;;;;;;;4.15;2.38;;;18.00;63.00;;;;;;5083202;28;20107;-35
2023/11/20 04:15:57;;;;;;;2.53;2.30;;;18.00;63.10;;;;;;5075704;28;20308;-35
2023/11/20 04:18:23;;;;;;;3.22;2.60;;;18.00;63.10;;;;;;5082859;28;20032;-35
2023/11/20 04:20:50;;;;;;;3.17;2.38;;;18.00;63.10;;;;;;5082495;28;20036;-35
2023/11/20 04:23:17;;;;;;;3.15;2.60;;;18.00;63.10;;;;;;5083082;28;20039;-35
2023/11/20 04:25:43;;;;;;;3.25;2.67;;;17.90;63.00;;;;;;5081959;28;20520;-35
2023/11/20 04:28:10;;;;;;;2.78;2.47;;;17.90;63.10;;;;;;5081164;28;20039;-35
2023/11/20 04:30:36;;;;;;;2.30;2.10;;;17.90;63.00;;;;;;5082821;28;20040;-35
2023/11/20 04:33:02;;;;;;;2.90;2.60;;;17.90;63.00;;;;;;5075004;28;20107;-35
2023/11/20 04:35:28;;;;;;;3.00;2.70;;;17.90;63.10;;;;;;5082145;28;20032;-35
2023/11/20 04:37:55;;;;;;;3.03;2.60;;;17.90;63.10;;;;;;5075345;28;20033;-35
2023/11/20 04:40:21;;;;;;;2.80;2.50;;;17.90;63.00;;;;;;5082433;28;20035;-35
2023/11/20 04:42:47;;;;;;;3.38;2.60;;;17.90;63.10;;;;;;5082225;28;20088;-35
2023/11/20 04:45:13;;;;;;;2.50;2.20;;;17.90;63.10;;;;;;5085922;28;20028;-35
2023/11/20 04:47:40;;;;;;;3.60;2.47;;;17.90;63.10;;;;;;5073673;28;20029;-35
2023/11/20 04:50:08;;;;;;;2.83;2.35;;;17.90;63.10;;;;;;5075300;28;20044;-35
2023/11/20 04:52:36;;;;;;;2.40;2.15;;;17.80;63.10;;;;;;5083753;28;20044;-35
2023/11/20 04:55:04;;;;;;;3.13;2.45;;;17.80;63.20;;;;;;5081734;28;20089;-35
2023/11/20 04:57:30;;;;;;;2.50;2.30;;;17.80;63.20;;;;;;5082506;28;20031;-35
2023/11/20 04:59:57;;;;;;;2.60;2.40;;;17.80;63.20;;;;;;5081469;28;20033;-35
2023/11/20 05:02:26;;;;;;;2.38;2.17;;;17.80;63.20;;;;;;5082089;28;20029;-35
2023/11/20 05:04:52;;;;;;;2.50;2.30;;;17.80;63.30;;;;;;5081068;28;20468;-35
2023/11/20 05:07:19;;;;;;;2.55;1.98;;;17.80;63.30;;;;;;5082114;28;20059;-40
2023/11/20 05:09:45;;;;;;;2.63;2.28;;;17.80;63.30;;;;;;5081598;28;20043;-35
2023/11/20 05:12:11;;;;;;;2.92;2.30;;;17.80;63.30;;;;;;5081637;28;20032;-35
2023/11/20 05:14:37;;;;;;;2.22;2.03;;;17.70;63.20;;;;;;5087074;28;20040;-35
2023/11/20 05:17:03;;;;;;;2.60;2.40;;;17.70;63.20;;;;;;5081735;28;20081;-35
2023/11/20 05:19:32;;;;;;;3.08;2.40;;;17.70;63.30;;;;;;5081645;28;20024;-35
2023/11/20 05:21:58;;;;;;;2.83;2.42;;;17.70;63.20;;;;;;5085697;28;20497;-35
2023/11/20 05:24:24;;;;;;;2.45;2.25;;;17.70;63.30;;;;;;5086152;28;20032;-35
2023/11/20 05:26:52;;;;;;;2.13;1.92;;;17.70;63.30;;;;;;5086030;28;20029;-35
2023/11/20 05:29:18;;;;;;;2.47;2.25;;;17.70;63.30;;;;;;5086260;28;20024;-35
2023/11/20 05:31:44;;;;;;;2.85;2.38;;;17.70;63.30;;;;;;5085296;28;20032;-35
2023/11/20 05:34:10;;;;;;;2.38;2.17;;;17.70;63.40;;;;;;5085368;28;20088;-35
2023/11/20 05:36:36;;;;;;;2.55;2.35;;;17.70;63.40;;;;;;5084947;28;20114;-35
2023/11/20 05:39:02;;;;;;;2.50;2.30;;;17.60;63.30;;;;;;5085195;28;20024;-34
2023/11/20 05:41:29;;;;;;;2.40;2.15;;;17.60;63.30;;;;;;5085924;28;20028;-34
2023/11/20 05:43:55;;;;;;;2.85;2.38;;;17.60;63.40;;;;;;5085195;28;20104;-35
2023/11/20 05:46:21;;;;;;;2.60;2.30;;;17.60;63.40;;;;;;5094855;28;20093;-35
2023/11/20 05:48:47;;;;;;;2.10;1.90;;;17.60;63.40;;;;;;5084980;28;20025;-36
2023/11/20 05:51:19;;;;;;;2.55;2.28;;;17.60;63.40;;;;;;5086039;28;20047;-35
2023/11/20 05:53:46;;;;;;;4.28;2.40;;;17.60;63.40;;;;;;5084798;28;20047;-35
2023/11/20 05:56:13;;;;;;;2.57;2.30;;;17.60;63.40;;;;;;5085714;28;20059;-35
2023/11/20 05:58:39;;;;;;;2.47;2.28;;;17.60;63.50;;;;;;5085093;28;20035;-35
2023/11/20 06:01:05;;;;;;;2.43;2.10;;;17.60;63.50;;;;;;5085575;28;20111;-35
2023/11/20 06:03:31;;;;;;;2.80;2.50;;;17.60;63.50;;;;;;5085218;28;20021;-35
2023/11/20 06:05:57;;;;;;;2.65;2.25;;;17.60;63.60;;;;;;5085259;28;20029;-35
2023/11/20 06:08:24;;;;;;;3.03;2.47;;;17.50;63.40;;;;;;5085123;28;20035;-35
2023/11/20 06:10:50;;;;;;;2.95;2.42;;;17.50;63.40;;;;;;5075008;28;20119;-35
2023/11/20 06:13:18;;;;;;;2.50;2.30;;;17.50;63.50;;;;;;5073399;28;20029;-35
2023/11/20 06:15:44;;;;;;;3.38;2.58;;;17.50;63.50;;;;;;5085399;28;20041;-35
2023/11/20 06:18:11;;;;;;;2.50;2.17;;;17.50;63.60;;;;;;5078181;28;20031;-35
2023/11/20 06:20:37;;;;;;;2.92;2.30;;;17.50;64.20;;;;;;5077210;28;20128;-36
2023/11/20 06:23:03;;;;;;;2.08;1.88;;;17.50;63.50;;;;;;5083898;28;20083;-35
2023/11/20 06:25:29;;;;;;;2.47;1.98;;;17.50;63.60;;;;;;5077155;28;20052;-35
2023/11/20 06:27:55;;;;;;;2.20;2.00;;;17.40;63.60;;;;;;5066718;28;20024;-34
2023/11/20 06:30:22;;;;;;;2.97;2.50;;;17.50;63.60;;;;;;5073090;28;20098;-35
2023/11/20 06:32:48;;;;;;;2.33;2.10;;;17.40;63.60;;;;;;5084304;28;20384;-35
2023/11/20 06:35:15;;;;;;;2.65;2.45;;;17.40;63.60;;;;;;5077104;28;20028;-35
2023/11/20 06:37:41;;;;;;;2.58;2.25;;;17.40;63.60;;;;;;5076061;28;20028;-35
2023/11/20 06:40:08;;;;;;;2.33;2.13;;;17.40;63.60;;;;;;5077533;28;20397;-35
2023/11/20 06:42:34;;;;;;;2.17;1.98;;;17.40;63.70;;;;;;5084112;28;20029;-35
2023/11/20 06:45:01;;;;;;;2.63;2.28;;;17.40;63.80;;;;;;5077252;28;20097;-35
2023/11/20 06:47:27;;;;;;;2.25;2.05;;;17.40;63.70;;;;;;5077822;28;20199;-34
2023/11/20 06:49:53;;;;;;;2.35;2.00;;;17.40;63.70;;;;;;5077702;28;20037;-35
2023/11/20 06:52:19;;;;;;;2.40;2.20;;;17.40;63.70;;;;;;5082436;28;20086;-35
2023/11/20 06:54:45;;;;;;;2.28;2.08;;;17.40;63.70;;;;;;5079127;28;20032;-34
2023/11/20 06:57:11;;;;;;;2.72;2.17;;;17.40;63.70;;;;;;5084527;28;20025;-35
2023/11/20 06:59:38;;;;;;;2.42;2.20;;;17.40;63.80;;;;;;5084516;28;20032;-34
2023/11/20 07:02:04;;;;;;;2.10;1.90;;;17.30;63.70;;;;;;5084466;28;20029;-35
2023/11/20 07:04:36;;;;;;;2.25;2.05;;;17.40;63.80;;;;;;5084077;28;20082;-35
2023/11/20 07:07:03;;;;;;;2.15;1.80;;;17.30;63.80;;;;;;5074089;28;20432;-34
2023/11/20 07:09:30;;;;;;;2.15;1.95;;;17.30;63.80;;;;;;5080035;28;20093;-35
2023/11/20 07:11:57;;;;;;;2.38;2.17;;;17.30;63.80;;;;;;5083712;28;20025;-35
2023/11/20 07:14:23;;;;;;;2.33;2.03;;;17.30;63.80;;;;;;5086027;28;20091;-35
2023/11/20 07:16:50;;;;;;;2.05;1.85;;;17.30;63.80;;;;;;5083658;28;20086;-35
2023/11/20 07:19:16;;;;;;;2.40;2.00;;;17.30;63.80;;;;;;5084169;28;20059;-35
2023/11/20 07:21:44;;;;;;;2.13;1.92;;;17.30;63.90;;;;;;5082965;28;20312;-35
2023/11/20 07:24:10;;;;;;;2.30;1.90;;;17.30;63.90;;;;;;5084199;28;20029;-35
2023/11/20 07:26:37;;;;;;;2.50;2.30;;;17.30;63.90;;;;;;5075811;28;20033;-35
2023/11/20 07:29:03;;;;;;;2.13;1.92;;;17.30;63.90;;;;;;5098842;28;20099;-35
2023/11/20 07:31:31;;;;;;;1.98;1.77;;;17.30;63.90;;;;;;5083303;28;20068;-35
2023/11/20 07:33:57;;;;;;;1.90;1.80;;;17.30;63.90;;;;;;5074901;28;20068;-35
2023/11/20 07:36:24;;;;;;;2.30;2.10;;;17.20;63.90;;;;;;5077631;28;20033;-35
2023/11/20 07:38:50;;;;;;;2.78;2.28;;;17.20;63.90;;;;;;5081433;28;20028;-35
2023/11/20 07:41:16;;;;;;;2.40;2.20;;;17.20;63.90;;;;;;5076652;28;20044;-35
2023/11/20 07:43:43;;;;;;;2.25;2.00;;;17.20;64.70;;;;;;5081219;28;20045;-35
2023/11/20 07:46:09;;;;;;;2.40;2.20;;;17.20;63.90;;;;;;5083149;28;20033;-35
2023/11/20 07:48:35;;;;;;;1.98;1.88;;;17.20;64.00;;;;;;5082138;28;20511;-35
2023/11/20 07:51:02;;;;;;;2.30;2.10;;;17.20;64.70;;;;;;5075094;28;20041;-35
2023/11/20 07:53:28;;;;;;;2.53;1.90;;;17.20;64.00;;;;;;5082578;28;20568;-35
2023/11/20 07:55:55;;;;;;;1.98;1.77;;;17.20;64.00;;;;;;5076351;28;20036;-35
2023/11/20 07:58:21;;;;;;;2.22;1.92;;;17.20;64.00;;;;;;5083446;28;20048;-35
2023/11/20 08:00:48;;;;;;;2.63;2.00;;;17.20;64.10;;;;;;5082990;28;20250;-35
2023/11/20 08:03:14;;;;;;;2.13;1.85;;;17.20;64.10;;;;;;5083227;28;20104;-35
2023/11/20 08:05:41;;;;;;;2.45;1.90;;;17.20;64.10;;;;;;5081285;28;20033;-35
2023/11/20 08:08:07;;;;;;;2.53;1.98;;;17.20;64.10;;;;;;5069123;28;20032;-35
2023/11/20 08:10:33;;;;;;;1.90;1.80;;;17.20;64.10;;;;;;5083135;28;20553;-35
2023/11/20 08:12:59;;;;;;;2.53;1.85;;;17.20;64.10;;;;;;5081216;28;20045;-35
2023/11/20 08:15:26;;;;;;;1.90;1.80;;;17.20;64.10;;;;;;5087116;28;20059;-35
2023/11/20 08:17:52;;;;;;;2.78;2.00;;;17.20;64.10;;;;;;5080432;28;20473;-35
2023/11/20 08:20:19;;;;;;;2.10;1.90;;;17.20;64.10;;;;;;5082307;28;20097;-35
2023/11/20 08:22:45;;;;;;;1.92;1.80;;;17.10;64.10;;;;;;5081815;28;20039;-35
2023/11/20 08:25:11;;;;;;;3.03;1.77;;;17.10;64.10;;;;;;5082648;28;20036;-37
2023/11/20 08:27:40;;;;;;;2.35;1.70;;;17.10;64.10;;;;;;5082390;28;20028;-35
2023/11/20 08:30:08;;;;;;;2.38;2.17;;;17.10;64.20;;;;;;5084358;28;20111;-35
2023/11/20 08:32:34;;;;;;;2.08;1.88;;;17.10;64.10;;;;;;5081883;28;20033;-35
2023/11/20 08:35:00;;;;;;;2.10;1.90;;;17.10;64.20;;;;;;5082253;28;20115;-35
2023/11/20 08:37:26;;;;;;;2.22;1.95;;;17.10;64.20;;;;;;5082734;28;20029;-35
2023/11/20 08:39:52;;;;;;;2.50;1.98;;;17.10;64.20;;;;;;5082104;28;20032;-35
2023/11/20 08:42:20;;;;;;;1.98;1.80;;;17.10;64.20;;;;;;5081955;28;20025;-36
2023/11/20 08:44:46;;;;;;;2.05;1.67;;;17.10;64.20;;;;;;5080277;28;20051;-35
2023/11/20 08:47:12;;;;;;;1.65;1.55;;;17.10;64.20;;;;;;5081686;28;20029;-35
2023/11/20 08:49:38;;;;;;;1.73;1.50;;;17.10;64.20;;;;;;5082025;28;20044;-35
2023/11/20 08:52:05;;;;;;;1.55;1.45;;;17.10;64.30;;;;;;5082381;28;20485;-35
2023/11/20 08:54:32;;;;;;;2.40;1.90;;;17.10;64.30;;;;;;5081902;28;20036;-35
2023/11/20 08:56:59;;;;;;;2.47;2.28;;;17.10;64.20;;;;;;5081219;28;20340;-35
2023/11/20 08:59:25;;;;;;;2.40;2.20;;;17.10;64.30;;;;;;5082000;28;20111;-35
2023/11/20 09:01:51;;;;;;;1.70;1.60;;;17.10;64.30;;;;;;5081354;28;20093;-35
2023/11/20 09:04:17;;;;;;;1.40;1.30;;;17.10;64.30;;;;;;5081448;28;20493;-35
2023/11/20 09:06:43;;;;;;;2.35;1.73;;;17.10;64.30;;;;;;5081742;28;20032;-35
2023/11/20 09:09:10;;;;;;;1.67;1.58;;;17.10;64.30;;;;;;5081200;28;20052;-35
2023/11/20 09:11:37;;;;;;;2.40;2.20;;;17.10;64.30;;;;;;5081064;28;20121;-35
2023/11/20 09:14:03;;;;;;;2.25;1.90;;;17.10;64.30;;;;;;5076723;28;20811;-35
2023/11/20 09:16:29;;;;;;;1.90;1.70;;;17.10;64.30;;;;;;5075046;28;20036;-35
2023/11/20 09:18:55;;;;;;;1.63;1.52;;;17.10;64.30;;;;;;5072793;28;20021;-35
2023/11/20 09:21:21;;;;;;;2.70;2.00;;;17.10;64.30;;;;;;5091225;28;20028;-37
2023/11/20 09:23:47;;;;;;;1.80;1.70;;;17.10;64.30;;;;;;5072932;28;20043;-36
2023/11/20 09:26:14;;;;;;;2.63;1.98;;;17.00;64.30;;;;;;5075337;28;20034;-35
2023/11/20 09:28:41;;;;;;;2.00;1.80;;;17.00;64.30;;;;;;5073580;28;20098;-35
2023/11/20 09:31:15;;;;;;;2.00;1.80;;;17.10;64.40;;;;;;5074775;28;20497;-35
2023/11/20 09:33:42;;;;;;;2.00;1.88;;;17.10;64.40;;;;;;5074068;28;20036;-36
2023/11/20 09:36:09;;;;;;;1.98;1.70;;;17.10;64.50;;;;;;5074925;28;20114;-35
2023/11/20 09:38:35;;;;;;;3.00;2.03;;;17.10;64.40;;;;;;5074954;28;20054;-35
2023/11/20 09:41:01;;;;;;;1.98;1.73;;;17.00;64.30;;;;;;5074687;28;20281;-35
2023/11/20 09:43:30;;;;;;;1.95;1.85;;;17.00;64.30;;;;;;5077911;28;20056;-36
2023/11/20 09:46:01;;;;;;;2.30;2.00;;;17.00;64.30;;;;;;5081887;28;20500;-35
2023/11/20 09:48:30;;;;;;;1.83;1.70;;;17.00;64.40;;;;;;5077243;28;20731;-35
2023/11/20 09:50:57;;;;;;;2.20;2.00;;;17.00;64.40;;;;;;5080984;28;20051;-35
2023/11/20 09:53:23;;;;;;;1.83;1.63;;;17.00;64.40;;;;;;5069690;28;20048;-35
2023/11/20 09:55:49;;;;;;;1.73;1.63;;;17.00;64.50;;;;;;5081406;28;20285;-35
2023/11/20 09:58:15;;;;;;;2.35;1.75;;;17.00;64.40;;;;;;5081763;28;20033;-35
2023/11/20 10:00:41;;;;;;;1.80;1.60;;;17.00;64.50;;;;;;5081223;28;20083;-35
2023/11/20 10:03:07;;;;;;;2.20;2.00;;;17.00;64.50;;;;;;5074363;28;20040;-35
2023/11/20 10:05:37;;;;;;;2.58;1.98;;;17.00;64.40;;;;;;5081422;28;20028;-35
2023/11/20 10:08:04;;;;;;;1.63;1.52;;;17.00;64.50;;;;;;5084903;28;20033;-35
2023/11/20 10:10:31;;;;;;;2.20;2.00;;;17.00;64.50;;;;;;5085013;28;20521;-35
2023/11/20 10:13:00;;;;;;;1.75;1.65;;;17.00;64.50;;;;;;5082908;28;20292;-34
2023/11/20 10:15:27;;;;;;;1.92;1.70;;;17.00;64.50;;;;;;5081324;28;20060;-34
2023/11/20 10:17:54;;;;;;;2.20;1.90;;;17.00;64.50;;;;;;5082702;28;20032;-35
2023/11/20 10:20:20;;;;;;;2.28;1.85;;;17.00;64.60;;;;;;5084819;28;20063;-35
2023/11/20 10:22:47;;;;;;;3.35;2.03;;;17.00;64.50;;;;;;5084879;28;20032;-35
2023/11/20 10:25:13;;;;;;;2.30;1.70;;;17.00;65.30;;;;;;5084850;28;20075;-35
2023/11/20 10:27:40;;;;;;;2.23;1.83;;;17.00;64.60;;;;;;5083628;28;20084;-35
2023/11/20 10:30:09;;;;;;;2.40;1.80;;;17.00;64.60;;;;;;5087795;28;20048;-35
2023/11/20 10:32:40;;;;;;;2.08;1.85;;;17.00;64.60;;;;;;5088015;28;20029;-34
2023/11/20 10:35:17;;;;;;;2.10;1.73;;;17.00;64.60;;;;;;5084145;28;20036;-34
2023/11/20 10:37:58;;;;;;;2.55;1.85;;;17.00;64.70;;;;;;5075494;28;20033;-35
2023/11/20 10:40:25;;;;;;;2.33;1.95;;;17.00;64.60;;;;;;5084935;28;20037;-35
2023/11/20 10:42:57;;;;;;;2.78;1.55;;;17.00;64.60;;;;;;5083939;28;20523;-35
2023/11/20 10:45:24;;;;;;;2.13;1.83;;;17.00;64.60;;;;;;5084250;28;20060;-35
2023/11/20 10:47:51;;;;;;;2.72;1.88;;;16.90;64.60;;;;;;5084119;28;20032;-35
2023/11/20 10:50:17;;;;;;;2.70;1.77;;;16.90;64.60;;;;;;5070801;28;20037;-35
2023/11/20 10:52:47;;;;;;;2.20;1.60;;;16.90;64.60;;;;;;5081841;28;20017;-35
2023/11/20 10:55:14;;;;;;;2.47;1.90;;;16.90;64.70;;;;;;5084454;28;20039;-35
2023/11/20 10:57:40;;;;;;;1.95;1.80;;;16.90;64.80;;;;;;5083406;28;20029;-35
2023/11/20 11:00:11;;;;;;;1.73;1.57;;;16.90;64.70;;;;;;5084118;28;20088;-35
2023/11/20 11:02:44;;;;;;;1.80;1.70;;;16.90;64.70;;;;;;5083491;28;20281;-35
2023/11/20 11:05:12;;;;;;;1.83;1.67;;;16.90;64.70;;;;;;5077423;28;20035;-35
2023/11/20 11:07:42;;;;;;;2.10;1.90;;;16.90;64.70;;;;;;5083811;28;20021;-35
2023/11/20 11:10:12;;;;;;;1.92;1.70;;;16.90;64.70;;;;;;5077121;28;20048;-35
2023/11/20 11:12:42;;;;;;;1.90;1.80;;;16.90;65.20;;;;;;5082659;28;20063;-34
2023/11/20 11:15:14;;;;;;;1.83;1.67;;;16.90;64.70;;;;;;5076962;28;20412;-35
2023/11/20 11:17:48;;;;;;;2.17;1.60;;;16.90;64.80;;;;;;5082258;28;20029;-35
2023/11/20 11:20:16;;;;;;;2.10;1.88;;;16.90;64.70;;;;;;5078007;28;20036;-35
2023/11/20 11:22:48;;;;;;;1.98;1.80;;;16.90;64.80;;;;;;5083948;28;20084;-35
2023/11/20 11:25:14;;;;;;;2.13;1.67;;;16.90;64.80;;;;;;5084294;28;20037;-35
2023/11/20 11:27:47;;;;;;;1.50;1.40;;;16.90;64.90;;;;;;5082368;28;20403;-35
2023/11/20 11:30:13;;;;;;;1.83;1.60;;;16.90;64.80;;;;;;5090102;28;20041;-35
2023/11/20 11:33:16;;;;;;;1.70;1.60;;;16.90;64.90;;;;;;5082722;28;20025;-35
2023/11/20 11:36:22;;;;;;;2.00;1.80;;;16.90;64.90;;;;;;5083478;28;20040;-35
2023/11/20 11:39:00;;;;;;;1.75;1.65;;;16.90;64.90;;;;;;5075014;28;20035;-35
2023/11/20 11:41:59;;;;;;;;;;;16.90;64.90;;;;;;5069361;28;20063;-36
2023/11/20 11:44:48;;;;;;;1.75;1.65;;;16.90;64.90;;;;;;5080349;28;20483;-35
2023/11/20 11:47:14;;;;;;;;;;;16.90;64.90;;;;;;5074890;28;20071;-36
2023/11/20 11:49:48;;;;;;;1.73;1.63;;;16.90;64.90;;;;;;5080629;28;19916;-36
2023/11/20 11:52:18;;;;;;;1.75;1.50;;;16.90;65.00;;;;;;5080706;28;20025;-34
2023/11/20 11:54:44;;;;;;;1.60;1.48;;;16.80;64.90;;;;;;5056203;28;20046;-34
2023/11/20 11:57:19;;;;;;;1.73;1.40;;;16.90;65.00;;;;;;5064008;28;20036;-35
2023/11/20 11:59:46;;;;;;;2.05;1.75;;;16.80;65.00;;;;;;5080310;28;20842;-35
2023/11/20 12:02:18;;;;;;;1.73;1.50;;;16.80;65.00;;;;;;5080144;28;20059;-35
2023/11/20 12:04:59;;;;;;;2.97;1.70;;;16.80;65.00;;;;;;5080091;28;20039;-35
2023/11/20 12:07:50;;;;;;;2.88;1.80;;;16.80;65.00;;;;;;5080237;28;20045;-36
2023/11/20 12:10:39;;;;;;;2.05;1.85;;;16.80;65.00;;;;;;5079493;28;20040;-35
2023/11/20 12:13:06;;;;;;;2.28;1.80;;;16.80;65.00;;;;;;5080079;28;20187;-35
2023/11/20 12:15:39;;;;;;;2.30;2.00;;;16.80;65.00;;;;;;5079717;28;20104;-38
2023/11/20 12:18:19;;;;;;;1.60;1.50;;;16.80;65.00;;;;;;5080277;28;20029;-35
2023/11/20 12:21:00;;;;;;;2.15;1.50;;;16.80;65.10;;;;;;5052901;28;20104;-35
2023/11/20 12:23:36;;;;;;;2.10;1.60;;;16.80;65.10;;;;;;5061601;28;20022;-35
2023/11/20 12:26:12;;;;;;;3.30;1.60;;;16.80;65.10;;;;;;5058848;28;20037;-35
2023/11/20 12:28:40;;;;;;;1.42;1.33;;;16.80;65.10;;;;;;5059567;28;20040;-35
2023/11/20 12:31:09;;;;;;;1.85;1.58;;;16.80;65.20;;;;;;5068511;28;20053;-35
2023/11/20 12:33:41;;;;;;;2.47;1.70;;;16.80;65.20;;;;;;5064797;28;20025;-35
2023/11/20 12:36:09;;;;;;;2.05;1.85;;;16.80;65.20;;;;;;5054157;28;20036;-35
2023/11/20 12:38:39;;;;;;;2.20;1.70;;;16.80;65.20;;;;;;5070329;28;20032;-40
2023/11/20 12:41:09;;;;;;;2.40;1.65;;;16.80;65.20;;;;;;5061766;28;20029;-35
2023/11/20 12:43:38;;;;;;;2.03;1.60;;;16.80;65.20;;;;;;5072677;28;20041;-34
2023/11/20 12:46:05;;;;;;;2.03;1.63;;;16.80;65.30;;;;;;5087702;28;20055;-34
2023/11/20 12:48:35;;;;;;;;;;;16.80;65.20;;;;;;5081786;28;20025;-34
2023/11/20 12:51:02;;;;;;;2.22;1.58;;;16.80;65.30;;;;;;5082554;28;19927;-34
2023/11/20 12:53:28;;;;;;;1.77;1.50;;;16.70;65.30;;;;;;5082216;28;20086;-34